Terminal Aerodrome Forecast
Issued by NWS

Home | Current Version | Previous Version | Text Only | Print | Product List | Glossary On
Versions: 1 2 3 4 5 6 7 8 9 10 11 12 13 14 15 16 17 18 19
000
FTUS41 KBTV 312300
TAFMPV
TAF
KMPV 312323Z 0100/0124 VRB04KT P6SM SKC
     FM010200 00000KT P6SM SKC
     FM010600 00000KT 1/4SM FG VV001
     FM011400 18004KT P6SM SCT070=

USA.gov is the U.S. government's official web portal to all federal, state and local government web resources and services.